sensor_id;sensor_type;location;lat;lon;timestamp;P1;durP1;ratioP1;P2;durP2;ratioP2
11090;SDS011;5599;52.210;21.046;2023-11-19T00:01:10;38.57;;;25.97;;
11090;SDS011;5599;52.210;21.046;2023-11-19T00:03:39;37.37;;;26.87;;
11090;SDS011;5599;52.210;21.046;2023-11-19T00:06:10;37.17;;;26.40;;
11090;SDS011;5599;52.210;21.046;2023-11-19T00:08:39;37.73;;;25.63;;
11090;SDS011;5599;52.210;21.046;2023-11-19T00:11:08;36.50;;;26.63;;
11090;SDS011;5599;52.210;21.046;2023-11-19T00:13:38;33.07;;;25.10;;
11090;SDS011;5599;52.210;21.046;2023-11-19T00:16:08;34.80;;;25.87;;
11090;SDS011;5599;52.210;21.046;2023-11-19T00:18:37;38.27;;;25.70;;
11090;SDS011;5599;52.210;21.046;2023-11-19T00:21:07;36.60;;;25.53;;
11090;SDS011;5599;52.210;21.046;2023-11-19T00:23:38;33.87;;;24.90;;
11090;SDS011;5599;52.210;21.046;2023-11-19T00:26:08;37.03;;;25.00;;
11090;SDS011;5599;52.210;21.046;2023-11-19T00:28:39;36.87;;;25.57;;
11090;SDS011;5599;52.210;21.046;2023-11-19T00:31:08;36.30;;;25.97;;
11090;SDS011;5599;52.210;21.046;2023-11-19T00:33:37;33.83;;;25.03;;
11090;SDS011;5599;52.210;21.046;2023-11-19T00:36:16;36.67;;;24.40;;
11090;SDS011;5599;52.210;21.046;2023-11-19T00:38:47;35.03;;;24.83;;
11090;SDS011;5599;52.210;21.046;2023-11-19T00:41:16;35.97;;;25.37;;
11090;SDS011;5599;52.210;21.046;2023-11-19T00:43:45;38.47;;;25.80;;
11090;SDS011;5599;52.210;21.046;2023-11-19T00:46:14;34.07;;;25.03;;
11090;SDS011;5599;52.210;21.046;2023-11-19T00:48:43;38.40;;;26.27;;
11090;SDS011;5599;52.210;21.046;2023-11-19T00:51:14;36.80;;;25.77;;
11090;SDS011;5599;52.210;21.046;2023-11-19T00:53:43;38.73;;;26.53;;
11090;SDS011;5599;52.210;21.046;2023-11-19T00:56:13;36.30;;;25.37;;
11090;SDS011;5599;52.210;21.046;2023-11-19T00:58:44;34.13;;;25.27;;
11090;SDS011;5599;52.210;21.046;2023-11-19T01:01:16;34.70;;;26.17;;
11090;SDS011;5599;52.210;21.046;2023-11-19T01:03:45;39.60;;;27.13;;
11090;SDS011;5599;52.210;21.046;2023-11-19T01:06:14;37.17;;;26.70;;
11090;SDS011;5599;52.210;21.046;2023-11-19T01:08:43;34.43;;;26.33;;
11090;SDS011;5599;52.210;21.046;2023-11-19T01:11:20;37.60;;;27.23;;
11090;SDS011;5599;52.210;21.046;2023-11-19T01:13:49;38.00;;;26.33;;
11090;SDS011;5599;52.210;21.046;2023-11-19T01:16:19;38.77;;;26.47;;
11090;SDS011;5599;52.210;21.046;2023-11-19T01:18:49;43.50;;;25.63;;
11090;SDS011;5599;52.210;21.046;2023-11-19T01:21:25;32.77;;;24.40;;
11090;SDS011;5599;52.210;21.046;2023-11-19T01:23:55;37.03;;;25.50;;
11090;SDS011;5599;52.210;21.046;2023-11-19T01:26:25;34.93;;;25.20;;
11090;SDS011;5599;52.210;21.046;2023-11-19T01:28:54;41.17;;;26.70;;
11090;SDS011;5599;52.210;21.046;2023-11-19T01:31:24;37.27;;;25.10;;
11090;SDS011;5599;52.210;21.046;2023-11-19T01:33:53;34.20;;;23.77;;
11090;SDS011;5599;52.210;21.046;2023-11-19T01:36:22;36.47;;;24.57;;
11090;SDS011;5599;52.210;21.046;2023-11-19T01:38:51;33.37;;;24.50;;
11090;SDS011;5599;52.210;21.046;2023-11-19T01:41:20;36.97;;;25.70;;
11090;SDS011;5599;52.210;21.046;2023-11-19T01:43:51;37.77;;;26.07;;
11090;SDS011;5599;52.210;21.046;2023-11-19T01:46:21;36.83;;;24.30;;
11090;SDS011;5599;52.210;21.046;2023-11-19T01:48:50;34.17;;;24.77;;
11090;SDS011;5599;52.210;21.046;2023-11-19T01:51:21;35.90;;;25.23;;
11090;SDS011;5599;52.210;21.046;2023-11-19T01:53:50;33.67;;;25.33;;
11090;SDS011;5599;52.210;21.046;2023-11-19T01:56:20;34.20;;;25.10;;
11090;SDS011;5599;52.210;21.046;2023-11-19T01:58:52;33.30;;;25.00;;
11090;SDS011;5599;52.210;21.046;2023-11-19T02:01:23;36.23;;;24.97;;
11090;SDS011;5599;52.210;21.046;2023-11-19T02:03:52;37.07;;;25.17;;
11090;SDS011;5599;52.210;21.046;2023-11-19T02:06:22;37.10;;;26.00;;
11090;SDS011;5599;52.210;21.046;2023-11-19T02:08:52;39.10;;;27.20;;
11090;SDS011;5599;52.210;21.046;2023-11-19T02:11:22;41.47;;;27.03;;
11090;SDS011;5599;52.210;21.046;2023-11-19T02:13:58;38.17;;;27.97;;
11090;SDS011;5599;52.210;21.046;2023-11-19T02:16:27;38.67;;;26.13;;
11090;SDS011;5599;52.210;21.046;2023-11-19T02:18:57;40.60;;;28.43;;
11090;SDS011;5599;52.210;21.046;2023-11-19T02:21:26;40.17;;;28.03;;
11090;SDS011;5599;52.210;21.046;2023-11-19T02:23:55;39.83;;;26.53;;
11090;SDS011;5599;52.210;21.046;2023-11-19T02:26:37;38.80;;;27.20;;
11090;SDS011;5599;52.210;21.046;2023-11-19T02:29:12;42.83;;;28.80;;
11090;SDS011;5599;52.210;21.046;2023-11-19T02:31:41;36.70;;;25.03;;
11090;SDS011;5599;52.210;21.046;2023-11-19T02:34:10;37.67;;;25.87;;
11090;SDS011;5599;52.210;21.046;2023-11-19T02:36:40;38.27;;;27.37;;
11090;SDS011;5599;52.210;21.046;2023-11-19T02:39:09;39.60;;;26.10;;
11090;SDS011;5599;52.210;21.046;2023-11-19T02:41:40;40.83;;;27.23;;
11090;SDS011;5599;52.210;21.046;2023-11-19T02:44:09;41.03;;;27.43;;
11090;SDS011;5599;52.210;21.046;2023-11-19T02:46:40;42.83;;;26.97;;
11090;SDS011;5599;52.210;21.046;2023-11-19T02:49:11;37.73;;;27.13;;
11090;SDS011;5599;52.210;21.046;2023-11-19T02:51:40;40.37;;;25.80;;
11090;SDS011;5599;52.210;21.046;2023-11-19T02:54:09;39.80;;;26.97;;
11090;SDS011;5599;52.210;21.046;2023-11-19T02:56:42;42.33;;;26.73;;
11090;SDS011;5599;52.210;21.046;2023-11-19T02:59:15;42.47;;;26.67;;
11090;SDS011;5599;52.210;21.046;2023-11-19T03:01:57;38.87;;;25.37;;
11090;SDS011;5599;52.210;21.046;2023-11-19T03:04:27;39.57;;;25.90;;
11090;SDS011;5599;52.210;21.046;2023-11-19T03:06:56;34.93;;;25.47;;
11090;SDS011;5599;52.210;21.046;2023-11-19T03:09:25;37.90;;;25.13;;
11090;SDS011;5599;52.210;21.046;2023-11-19T03:11:56;42.17;;;27.00;;
11090;SDS011;5599;52.210;21.046;2023-11-19T03:14:25;37.93;;;26.40;;
11090;SDS011;5599;52.210;21.046;2023-11-19T03:16:56;40.20;;;26.00;;
11090;SDS011;5599;52.210;21.046;2023-11-19T03:19:25;41.73;;;26.60;;
11090;SDS011;5599;52.210;21.046;2023-11-19T03:21:54;36.80;;;25.57;;
11090;SDS011;5599;52.210;21.046;2023-11-19T03:24:24;40.40;;;26.63;;
11090;SDS011;5599;52.210;21.046;2023-11-19T03:26:53;40.63;;;26.90;;
11090;SDS011;5599;52.210;21.046;2023-11-19T03:29:22;38.87;;;25.70;;
11090;SDS011;5599;52.210;21.046;2023-11-19T03:31:53;42.60;;;27.57;;
11090;SDS011;5599;52.210;21.046;2023-11-19T03:34:25;38.67;;;25.97;;
11090;SDS011;5599;52.210;21.046;2023-11-19T03:36:54;38.40;;;25.00;;
11090;SDS011;5599;52.210;21.046;2023-11-19T03:39:24;40.07;;;26.37;;
11090;SDS011;5599;52.210;21.046;2023-11-19T03:41:54;38.17;;;25.20;;
11090;SDS011;5599;52.210;21.046;2023-11-19T03:44:23;38.57;;;26.13;;
11090;SDS011;5599;52.210;21.046;2023-11-19T03:46:53;39.50;;;26.00;;
11090;SDS011;5599;52.210;21.046;2023-11-19T03:49:22;41.40;;;25.63;;
11090;SDS011;5599;52.210;21.046;2023-11-19T03:51:53;35.87;;;23.87;;
11090;SDS011;5599;52.210;21.046;2023-11-19T03:54:22;37.17;;;24.07;;
11090;SDS011;5599;52.210;21.046;2023-11-19T03:56:52;39.07;;;25.50;;
11090;SDS011;5599;52.210;21.046;2023-11-19T03:59:21;36.80;;;24.60;;
11090;SDS011;5599;52.210;21.046;2023-11-19T04:01:50;36.67;;;25.40;;
11090;SDS011;5599;52.210;21.046;2023-11-19T04:04:21;35.50;;;25.13;;
11090;SDS011;5599;52.210;21.046;2023-11-19T04:06:51;39.33;;;26.30;;
11090;SDS011;5599;52.210;21.046;2023-11-19T04:09:21;36.73;;;25.67;;
11090;SDS011;5599;52.210;21.046;2023-11-19T04:11:50;37.87;;;25.20;;
11090;SDS011;5599;52.210;21.046;2023-11-19T04:14:19;38.53;;;25.93;;
11090;SDS011;5599;52.210;21.046;2023-11-19T04:16:48;35.63;;;24.50;;
11090;SDS011;5599;52.210;21.046;2023-11-19T04:19:18;38.67;;;25.03;;
11090;SDS011;5599;52.210;21.046;2023-11-19T04:21:47;35.60;;;25.00;;
11090;SDS011;5599;52.210;21.046;2023-11-19T04:24:18;38.67;;;25.63;;
11090;SDS011;5599;52.210;21.046;2023-11-19T04:26:47;35.13;;;24.00;;
11090;SDS011;5599;52.210;21.046;2023-11-19T04:29:16;41.30;;;25.93;;
11090;SDS011;5599;52.210;21.046;2023-11-19T04:31:46;36.03;;;24.07;;
11090;SDS011;5599;52.210;21.046;2023-11-19T04:34:15;40.77;;;25.93;;
11090;SDS011;5599;52.210;21.046;2023-11-19T04:36:44;39.50;;;25.80;;
11090;SDS011;5599;52.210;21.046;2023-11-19T04:39:13;36.57;;;24.87;;
11090;SDS011;5599;52.210;21.046;2023-11-19T04:41:47;41.17;;;25.30;;
11090;SDS011;5599;52.210;21.046;2023-11-19T04:44:16;40.33;;;27.23;;
11090;SDS011;5599;52.210;21.046;2023-11-19T04:46:46;39.60;;;25.67;;
11090;SDS011;5599;52.210;21.046;2023-11-19T04:49:15;39.33;;;25.70;;
11090;SDS011;5599;52.210;21.046;2023-11-19T04:51:45;38.67;;;25.00;;
11090;SDS011;5599;52.210;21.046;2023-11-19T04:54:15;37.90;;;25.00;;
11090;SDS011;5599;52.210;21.046;2023-11-19T04:56:45;40.03;;;24.30;;
11090;SDS011;5599;52.210;21.046;2023-11-19T04:59:16;38.77;;;23.57;;
11090;SDS011;5599;52.210;21.046;2023-11-19T05:01:46;34.63;;;23.07;;
11090;SDS011;5599;52.210;21.046;2023-11-19T05:04:16;34.37;;;23.97;;
11090;SDS011;5599;52.210;21.046;2023-11-19T05:06:46;32.73;;;23.30;;
11090;SDS011;5599;52.210;21.046;2023-11-19T05:09:15;35.40;;;23.07;;
11090;SDS011;5599;52.210;21.046;2023-11-19T05:11:45;31.23;;;21.03;;
11090;SDS011;5599;52.210;21.046;2023-11-19T05:14:19;30.83;;;21.73;;
11090;SDS011;5599;52.210;21.046;2023-11-19T05:16:49;33.50;;;22.97;;
11090;SDS011;5599;52.210;21.046;2023-11-19T05:19:18;33.20;;;22.20;;
11090;SDS011;5599;52.210;21.046;2023-11-19T05:21:47;32.80;;;22.83;;
11090;SDS011;5599;52.210;21.046;2023-11-19T05:24:19;33.60;;;21.13;;
11090;SDS011;5599;52.210;21.046;2023-11-19T05:26:48;32.30;;;21.50;;
11090;SDS011;5599;52.210;21.046;2023-11-19T05:29:19;29.80;;;19.90;;
11090;SDS011;5599;52.210;21.046;2023-11-19T05:31:49;32.43;;;21.33;;
11090;SDS011;5599;52.210;21.046;2023-11-19T05:34:18;30.27;;;20.83;;
11090;SDS011;5599;52.210;21.046;2023-11-19T05:36:47;30.90;;;21.97;;
11090;SDS011;5599;52.210;21.046;2023-11-19T05:39:16;29.70;;;20.17;;
11090;SDS011;5599;52.210;21.046;2023-11-19T05:41:47;32.53;;;20.97;;
11090;SDS011;5599;52.210;21.046;2023-11-19T05:44:16;31.70;;;21.57;;
11090;SDS011;5599;52.210;21.046;2023-11-19T05:46:47;30.30;;;20.93;;
11090;SDS011;5599;52.210;21.046;2023-11-19T05:49:17;31.43;;;20.97;;
11090;SDS011;5599;52.210;21.046;2023-11-19T05:51:46;31.00;;;21.10;;
11090;SDS011;5599;52.210;21.046;2023-11-19T05:54:15;30.90;;;22.47;;
11090;SDS011;5599;52.210;21.046;2023-11-19T05:56:47;32.67;;;22.23;;
11090;SDS011;5599;52.210;21.046;2023-11-19T05:59:16;28.97;;;20.30;;
11090;SDS011;5599;52.210;21.046;2023-11-19T06:01:46;27.60;;;20.70;;
11090;SDS011;5599;52.210;21.046;2023-11-19T06:04:16;27.30;;;19.00;;
11090;SDS011;5599;52.210;21.046;2023-11-19T06:06:46;28.10;;;20.47;;
11090;SDS011;5599;52.210;21.046;2023-11-19T06:09:15;32.57;;;20.93;;
11090;SDS011;5599;52.210;21.046;2023-11-19T06:11:45;27.03;;;18.80;;
11090;SDS011;5599;52.210;21.046;2023-11-19T06:14:16;27.37;;;18.70;;
11090;SDS011;5599;52.210;21.046;2023-11-19T06:16:45;25.63;;;18.30;;
11090;SDS011;5599;52.210;21.046;2023-11-19T06:19:16;26.03;;;18.27;;
11090;SDS011;5599;52.210;21.046;2023-11-19T06:21:45;25.87;;;17.67;;
11090;SDS011;5599;52.210;21.046;2023-11-19T06:24:14;23.20;;;17.67;;
11090;SDS011;5599;52.210;21.046;2023-11-19T06:26:43;24.70;;;16.57;;
11090;SDS011;5599;52.210;21.046;2023-11-19T06:29:12;23.17;;;17.33;;
11090;SDS011;5599;52.210;21.046;2023-11-19T06:31:45;23.63;;;16.97;;
11090;SDS011;5599;52.210;21.046;2023-11-19T06:34:17;21.70;;;15.33;;
11090;SDS011;5599;52.210;21.046;2023-11-19T06:36:46;21.67;;;15.40;;
11090;SDS011;5599;52.210;21.046;2023-11-19T06:39:15;23.13;;;16.93;;
11090;SDS011;5599;52.210;21.046;2023-11-19T06:41:45;24.73;;;17.37;;
11090;SDS011;5599;52.210;21.046;2023-11-19T06:44:15;22.23;;;14.97;;
11090;SDS011;5599;52.210;21.046;2023-11-19T06:46:44;18.57;;;14.00;;
11090;SDS011;5599;52.210;21.046;2023-11-19T06:49:14;14.80;;;10.83;;
11090;SDS011;5599;52.210;21.046;2023-11-19T06:51:45;18.47;;;12.73;;
11090;SDS011;5599;52.210;21.046;2023-11-19T06:54:14;16.73;;;13.23;;
11090;SDS011;5599;52.210;21.046;2023-11-19T06:56:43;17.87;;;13.23;;
11090;SDS011;5599;52.210;21.046;2023-11-19T06:59:14;15.23;;;12.20;;
11090;SDS011;5599;52.210;21.046;2023-11-19T07:01:43;16.27;;;12.07;;
11090;SDS011;5599;52.210;21.046;2023-11-19T07:04:12;17.47;;;14.10;;
11090;SDS011;5599;52.210;21.046;2023-11-19T07:06:41;14.83;;;12.17;;
11090;SDS011;5599;52.210;21.046;2023-11-19T07:09:12;15.03;;;10.93;;
11090;SDS011;5599;52.210;21.046;2023-11-19T07:11:42;14.80;;;10.93;;
11090;SDS011;5599;52.210;21.046;2023-11-19T07:14:12;14.00;;;11.73;;
11090;SDS011;5599;52.210;21.046;2023-11-19T07:16:42;13.17;;;11.60;;
11090;SDS011;5599;52.210;21.046;2023-11-19T07:19:13;15.03;;;11.87;;
11090;SDS011;5599;52.210;21.046;2023-11-19T07:21:42;15.03;;;11.37;;
11090;SDS011;5599;52.210;21.046;2023-11-19T07:24:13;15.30;;;12.03;;
11090;SDS011;5599;52.210;21.046;2023-11-19T07:26:43;14.47;;;12.80;;
11090;SDS011;5599;52.210;21.046;2023-11-19T07:29:14;15.60;;;12.30;;
11090;SDS011;5599;52.210;21.046;2023-11-19T07:31:55;12.87;;;11.00;;
11090;SDS011;5599;52.210;21.046;2023-11-19T07:34:24;13.37;;;11.30;;
11090;SDS011;5599;52.210;21.046;2023-11-19T07:36:53;14.17;;;11.53;;
11090;SDS011;5599;52.210;21.046;2023-11-19T07:39:25;13.87;;;11.47;;
11090;SDS011;5599;52.210;21.046;2023-11-19T07:41:55;12.70;;;11.30;;
11090;SDS011;5599;52.210;21.046;2023-11-19T07:44:24;14.00;;;11.57;;
11090;SDS011;5599;52.210;21.046;2023-11-19T07:46:54;13.07;;;11.27;;
11090;SDS011;5599;52.210;21.046;2023-11-19T07:49:23;12.80;;;11.20;;
11090;SDS011;5599;52.210;21.046;2023-11-19T07:51:52;13.87;;;11.37;;
11090;SDS011;5599;52.210;21.046;2023-11-19T07:54:21;14.70;;;12.00;;
11090;SDS011;5599;52.210;21.046;2023-11-19T07:56:52;13.70;;;11.30;;
11090;SDS011;5599;52.210;21.046;2023-11-19T07:59:22;15.87;;;11.90;;
11090;SDS011;5599;52.210;21.046;2023-11-19T08:01:51;13.27;;;11.77;;
11090;SDS011;5599;52.210;21.046;2023-11-19T08:04:20;14.77;;;12.43;;
11090;SDS011;5599;52.210;21.046;2023-11-19T08:06:49;14.67;;;12.10;;
11090;SDS011;5599;52.210;21.046;2023-11-19T08:09:20;14.07;;;11.67;;
11090;SDS011;5599;52.210;21.046;2023-11-19T08:11:50;13.37;;;11.53;;
11090;SDS011;5599;52.210;21.046;2023-11-19T08:14:20;13.87;;;12.17;;
11090;SDS011;5599;52.210;21.046;2023-11-19T08:16:51;13.37;;;11.97;;
11090;SDS011;5599;52.210;21.046;2023-11-19T08:19:20;16.00;;;11.90;;
11090;SDS011;5599;52.210;21.046;2023-11-19T08:21:49;14.73;;;12.43;;
11090;SDS011;5599;52.210;21.046;2023-11-19T08:24:18;15.07;;;12.47;;
11090;SDS011;5599;52.210;21.046;2023-11-19T08:26:48;14.10;;;11.97;;
11090;SDS011;5599;52.210;21.046;2023-11-19T08:29:30;14.70;;;12.83;;
11090;SDS011;5599;52.210;21.046;2023-11-19T08:32:00;13.30;;;11.90;;
11090;SDS011;5599;52.210;21.046;2023-11-19T08:34:30;14.67;;;12.87;;
11090;SDS011;5599;52.210;21.046;2023-11-19T08:36:59;15.37;;;13.03;;
11090;SDS011;5599;52.210;21.046;2023-11-19T08:39:29;14.93;;;12.47;;
11090;SDS011;5599;52.210;21.046;2023-11-19T08:41:58;15.10;;;12.90;;
11090;SDS011;5599;52.210;21.046;2023-11-19T08:44:27;13.90;;;12.40;;
11090;SDS011;5599;52.210;21.046;2023-11-19T08:46:58;13.30;;;11.77;;
11090;SDS011;5599;52.210;21.046;2023-11-19T08:49:27;14.67;;;13.03;;
11090;SDS011;5599;52.210;21.046;2023-11-19T08:51:56;19.73;;;12.97;;
11090;SDS011;5599;52.210;21.046;2023-11-19T08:54:25;13.07;;;11.50;;
11090;SDS011;5599;52.210;21.046;2023-11-19T08:56:55;15.77;;;13.33;;
11090;SDS011;5599;52.210;21.046;2023-11-19T08:59:24;14.27;;;12.30;;
11090;SDS011;5599;52.210;21.046;2023-11-19T09:01:53;13.97;;;12.10;;
11090;SDS011;5599;52.210;21.046;2023-11-19T09:04:24;15.13;;;13.20;;
11090;SDS011;5599;52.210;21.046;2023-11-19T09:06:53;15.93;;;12.90;;
11090;SDS011;5599;52.210;21.046;2023-11-19T09:09:22;14.63;;;12.87;;
11090;SDS011;5599;52.210;21.046;2023-11-19T09:11:52;15.37;;;13.23;;
11090;SDS011;5599;52.210;21.046;2023-11-19T09:14:21;13.87;;;12.03;;
11090;SDS011;5599;52.210;21.046;2023-11-19T09:16:53;15.30;;;12.20;;
11090;SDS011;5599;52.210;21.046;2023-11-19T09:19:24;15.10;;;12.97;;
11090;SDS011;5599;52.210;21.046;2023-11-19T09:21:53;16.37;;;13.50;;
11090;SDS011;5599;52.210;21.046;2023-11-19T09:24:23;14.83;;;12.17;;
11090;SDS011;5599;52.210;21.046;2023-11-19T09:26:52;15.43;;;13.07;;
11090;SDS011;5599;52.210;21.046;2023-11-19T09:29:22;14.87;;;12.60;;
11090;SDS011;5599;52.210;21.046;2023-11-19T09:31:51;15.23;;;12.63;;
11090;SDS011;5599;52.210;21.046;2023-11-19T09:34:20;15.63;;;12.87;;
11090;SDS011;5599;52.210;21.046;2023-11-19T09:36:50;15.20;;;12.60;;
11090;SDS011;5599;52.210;21.046;2023-11-19T09:39:20;17.07;;;13.60;;
11090;SDS011;5599;52.210;21.046;2023-11-19T09:41:49;16.87;;;13.60;;
11090;SDS011;5599;52.210;21.046;2023-11-19T09:44:18;15.53;;;13.80;;
11090;SDS011;5599;52.210;21.046;2023-11-19T09:46:47;16.30;;;13.73;;
11090;SDS011;5599;52.210;21.046;2023-11-19T09:49:17;15.70;;;12.70;;
11090;SDS011;5599;52.210;21.046;2023-11-19T09:52:04;15.93;;;13.77;;
11090;SDS011;5599;52.210;21.046;2023-11-19T09:54:34;15.83;;;13.37;;
11090;SDS011;5599;52.210;21.046;2023-11-19T09:57:04;16.40;;;14.37;;
11090;SDS011;5599;52.210;21.046;2023-11-19T09:59:37;15.97;;;13.43;;
11090;SDS011;5599;52.210;21.046;2023-11-19T10:02:09;16.80;;;14.00;;
11090;SDS011;5599;52.210;21.046;2023-11-19T10:04:38;16.57;;;13.40;;
11090;SDS011;5599;52.210;21.046;2023-11-19T10:07:12;16.33;;;13.33;;
11090;SDS011;5599;52.210;21.046;2023-11-19T10:09:41;18.30;;;14.10;;
11090;SDS011;5599;52.210;21.046;2023-11-19T10:12:11;16.17;;;13.77;;
11090;SDS011;5599;52.210;21.046;2023-11-19T10:14:40;17.43;;;14.23;;
11090;SDS011;5599;52.210;21.046;2023-11-19T10:17:11;15.80;;;13.63;;
11090;SDS011;5599;52.210;21.046;2023-11-19T10:19:41;15.70;;;13.63;;
11090;SDS011;5599;52.210;21.046;2023-11-19T10:22:10;16.63;;;13.57;;
11090;SDS011;5599;52.210;21.046;2023-11-19T10:24:43;17.63;;;14.33;;
11090;SDS011;5599;52.210;21.046;2023-11-19T10:27:20;17.60;;;14.03;;
11090;SDS011;5599;52.210;21.046;2023-11-19T10:29:53;18.57;;;14.87;;
11090;SDS011;5599;52.210;21.046;2023-11-19T10:32:22;18.00;;;14.27;;
11090;SDS011;5599;52.210;21.046;2023-11-19T10:35:03;16.90;;;14.37;;
11090;SDS011;5599;52.210;21.046;2023-11-19T10:37:36;16.40;;;14.33;;
11090;SDS011;5599;52.210;21.046;2023-11-19T10:40:05;18.20;;;14.67;;
11090;SDS011;5599;52.210;21.046;2023-11-19T10:42:37;19.57;;;14.30;;
11090;SDS011;5599;52.210;21.046;2023-11-19T10:45:17;19.70;;;14.47;;
11090;SDS011;5599;52.210;21.046;2023-11-19T10:47:51;17.73;;;14.43;;
11090;SDS011;5599;52.210;21.046;2023-11-19T10:50:20;17.10;;;14.13;;
11090;SDS011;5599;52.210;21.046;2023-11-19T10:52:53;17.83;;;14.87;;
11090;SDS011;5599;52.210;21.046;2023-11-19T10:55:26;17.83;;;14.87;;
11090;SDS011;5599;52.210;21.046;2023-11-19T10:57:59;19.10;;;15.13;;
11090;SDS011;5599;52.210;21.046;2023-11-19T11:00:36;16.70;;;14.00;;
11090;SDS011;5599;52.210;21.046;2023-11-19T11:03:09;17.47;;;13.93;;
11090;SDS011;5599;52.210;21.046;2023-11-19T11:05:43;17.73;;;14.53;;
11090;SDS011;5599;52.210;21.046;2023-11-19T11:08:18;17.27;;;14.20;;
11090;SDS011;5599;52.210;21.046;2023-11-19T11:10:48;19.03;;;15.33;;
11090;SDS011;5599;52.210;21.046;2023-11-19T11:13:24;18.30;;;14.53;;
11090;SDS011;5599;52.210;21.046;2023-11-19T11:15:56;18.17;;;14.83;;
11090;SDS011;5599;52.210;21.046;2023-11-19T11:18:27;20.97;;;14.87;;
11090;SDS011;5599;52.210;21.046;2023-11-19T11:20:58;20.03;;;14.70;;
11090;SDS011;5599;52.210;21.046;2023-11-19T11:23:40;17.83;;;14.30;;
11090;SDS011;5599;52.210;21.046;2023-11-19T11:26:28;18.03;;;14.27;;
11090;SDS011;5599;52.210;21.046;2023-11-19T11:29:20;19.50;;;14.93;;
11090;SDS011;5599;52.210;21.046;2023-11-19T11:32:02;19.90;;;15.27;;
11090;SDS011;5599;52.210;21.046;2023-11-19T11:34:51;18.63;;;15.13;;
11090;SDS011;5599;52.210;21.046;2023-11-19T11:37:30;18.40;;;14.63;;
11090;SDS011;5599;52.210;21.046;2023-11-19T11:40:03;18.97;;;14.80;;
11090;SDS011;5599;52.210;21.046;2023-11-19T11:42:37;18.77;;;14.37;;
11090;SDS011;5599;52.210;21.046;2023-11-19T11:45:07;18.63;;;15.13;;
11090;SDS011;5599;52.210;21.046;2023-11-19T11:50:52;17.90;;;14.37;;
11090;SDS011;5599;52.210;21.046;2023-11-19T11:53:23;18.23;;;14.27;;
11090;SDS011;5599;52.210;21.046;2023-11-19T11:55:57;18.47;;;14.57;;
11090;SDS011;5599;52.210;21.046;2023-11-19T11:58:35;17.70;;;14.13;;
11090;SDS011;5599;52.210;21.046;2023-11-19T12:01:14;18.13;;;14.17;;
11090;SDS011;5599;52.210;21.046;2023-11-19T12:03:48;18.50;;;14.97;;
11090;SDS011;5599;52.210;21.046;2023-11-19T12:06:20;18.27;;;14.63;;
11090;SDS011;5599;52.210;21.046;2023-11-19T12:08:50;17.97;;;14.43;;
11090;SDS011;5599;52.210;21.046;2023-11-19T12:11:21;20.83;;;15.87;;
11090;SDS011;5599;52.210;21.046;2023-11-19T12:13:54;17.93;;;14.73;;
11090;SDS011;5599;52.210;21.046;2023-11-19T12:16:26;17.40;;;14.10;;
11090;SDS011;5599;52.210;21.046;2023-11-19T12:18:56;19.13;;;15.00;;
11090;SDS011;5599;52.210;21.046;2023-11-19T12:21:33;19.03;;;14.13;;
11090;SDS011;5599;52.210;21.046;2023-11-19T12:24:05;21.20;;;15.37;;
11090;SDS011;5599;52.210;21.046;2023-11-19T12:26:38;19.73;;;15.30;;
11090;SDS011;5599;52.210;21.046;2023-11-19T12:29:08;20.90;;;16.20;;
11090;SDS011;5599;52.210;21.046;2023-11-19T12:31:38;19.10;;;15.03;;
11090;SDS011;5599;52.210;21.046;2023-11-19T12:34:12;17.50;;;14.27;;
11090;SDS011;5599;52.210;21.046;2023-11-19T12:36:41;19.17;;;15.13;;
11090;SDS011;5599;52.210;21.046;2023-11-19T12:39:11;20.07;;;15.70;;
11090;SDS011;5599;52.210;21.046;2023-11-19T12:41:53;18.27;;;15.03;;
11090;SDS011;5599;52.210;21.046;2023-11-19T12:44:23;18.73;;;15.07;;
11090;SDS011;5599;52.210;21.046;2023-11-19T12:47:00;18.13;;;15.07;;
11090;SDS011;5599;52.210;21.046;2023-11-19T12:49:34;18.47;;;14.40;;
11090;SDS011;5599;52.210;21.046;2023-11-19T12:52:11;19.33;;;14.37;;
11090;SDS011;5599;52.210;21.046;2023-11-19T12:54:40;17.90;;;14.80;;
11090;SDS011;5599;52.210;21.046;2023-11-19T12:57:11;18.90;;;14.83;;
11090;SDS011;5599;52.210;21.046;2023-11-19T12:59:41;17.90;;;14.50;;
11090;SDS011;5599;52.210;21.046;2023-11-19T13:02:10;20.53;;;15.90;;
11090;SDS011;5599;52.210;21.046;2023-11-19T13:04:39;16.17;;;13.80;;
11090;SDS011;5599;52.210;21.046;2023-11-19T13:07:10;17.87;;;14.73;;
11090;SDS011;5599;52.210;21.046;2023-11-19T13:09:39;19.10;;;15.27;;
11090;SDS011;5599;52.210;21.046;2023-11-19T13:12:16;20.53;;;15.20;;
11090;SDS011;5599;52.210;21.046;2023-11-19T13:14:45;17.07;;;14.30;;
11090;SDS011;5599;52.210;21.046;2023-11-19T13:17:16;17.93;;;15.10;;
11090;SDS011;5599;52.210;21.046;2023-11-19T13:19:47;18.43;;;14.87;;
11090;SDS011;5599;52.210;21.046;2023-11-19T13:22:18;19.93;;;14.57;;
11090;SDS011;5599;52.210;21.046;2023-11-19T13:24:47;17.60;;;14.60;;
11090;SDS011;5599;52.210;21.046;2023-11-19T13:27:19;17.63;;;14.63;;
11090;SDS011;5599;52.210;21.046;2023-11-19T13:29:48;18.30;;;14.47;;
11090;SDS011;5599;52.210;21.046;2023-11-19T13:32:18;18.33;;;15.20;;
11090;SDS011;5599;52.210;21.046;2023-11-19T13:34:47;21.47;;;15.00;;
11090;SDS011;5599;52.210;21.046;2023-11-19T13:37:17;17.57;;;14.40;;
11090;SDS011;5599;52.210;21.046;2023-11-19T13:39:46;18.77;;;14.87;;
11090;SDS011;5599;52.210;21.046;2023-11-19T13:42:16;19.63;;;15.23;;
11090;SDS011;5599;52.210;21.046;2023-11-19T13:44:47;21.70;;;15.80;;
11090;SDS011;5599;52.210;21.046;2023-11-19T13:47:17;19.47;;;15.00;;
11090;SDS011;5599;52.210;21.046;2023-11-19T13:49:47;22.83;;;17.90;;
11090;SDS011;5599;52.210;21.046;2023-11-19T13:52:16;19.83;;;16.27;;
11090;SDS011;5599;52.210;21.046;2023-11-19T13:54:45;19.00;;;16.27;;
11090;SDS011;5599;52.210;21.046;2023-11-19T13:57:14;19.70;;;15.97;;
11090;SDS011;5599;52.210;21.046;2023-11-19T13:59:45;19.43;;;15.30;;
11090;SDS011;5599;52.210;21.046;2023-11-19T14:02:14;18.53;;;15.47;;
11090;SDS011;5599;52.210;21.046;2023-11-19T14:04:44;24.87;;;16.40;;
11090;SDS011;5599;52.210;21.046;2023-11-19T14:07:13;20.40;;;14.83;;
11090;SDS011;5599;52.210;21.046;2023-11-19T14:09:43;20.17;;;15.03;;
11090;SDS011;5599;52.210;21.046;2023-11-19T14:12:12;19.03;;;15.27;;
11090;SDS011;5599;52.210;21.046;2023-11-19T14:14:41;21.77;;;16.87;;
11090;SDS011;5599;52.210;21.046;2023-11-19T14:17:12;21.33;;;16.40;;
11090;SDS011;5599;52.210;21.046;2023-11-19T14:19:42;21.23;;;17.00;;
11090;SDS011;5599;52.210;21.046;2023-11-19T14:22:12;24.03;;;17.23;;
11090;SDS011;5599;52.210;21.046;2023-11-19T14:24:41;21.60;;;16.70;;
11090;SDS011;5599;52.210;21.046;2023-11-19T14:27:10;23.83;;;18.07;;
11090;SDS011;5599;52.210;21.046;2023-11-19T14:29:39;24.30;;;17.77;;
11090;SDS011;5599;52.210;21.046;2023-11-19T14:32:09;22.17;;;17.57;;
11090;SDS011;5599;52.210;21.046;2023-11-19T14:34:39;23.77;;;18.17;;
11090;SDS011;5599;52.210;21.046;2023-11-19T14:37:09;24.47;;;17.97;;
11090;SDS011;5599;52.210;21.046;2023-11-19T14:39:39;23.10;;;16.63;;
11090;SDS011;5599;52.210;21.046;2023-11-19T14:42:08;24.67;;;18.80;;
11090;SDS011;5599;52.210;21.046;2023-11-19T14:44:38;23.20;;;18.13;;